Terminal Aerodrome Forecast
Issued by NWS

Home | Current Version | Previous Version | Text Only | Print | Product List | Glossary Off
Versions: 1 2 3 4 5 6 7 8 9 10 11 12 13 14 15 16 17 18 19 20 21 22 23 24 25

000
FTUS43 KBIS 211129
TAFJMS
TAF
KJMS 211129Z 2112/2212 32006KT P6SM SCT250
     FM211500 02005KT P6SM BKN200
     FM211800 03005KT 4SM BR SCT002 OVC008
     FM220100 04005KT 4SM BR BKN004=

USA.gov is the U.S. government's official web portal to all federal, state and local government web resources and services.